Capitol Logistics 7407

Operating for MZN



KTPA
Tampa International Airport
Tampa, Florida
KRFD
Chicago/Rockford International Airport
Rockford, Illinois

Activity Log

Date Flight Route Aircraft Duration
10/16/2019 CPX458 ENDED8 LACEN BRUTS Q118 ATL BWG SPI BDF QUOTE B738 2h 43m
09/12/2019 CPX458 ENDED8 LACEN BRUTS Q118 ATL BWG SPI BDF QUOTE B738 2h 31m
07/18/2019 CPX458 ENDED8 LACEN BRUTS Q118 ATL BWG SPI BDF QUOTE B738 2h 35m
06/28/2019 CPX458 ENDED8 LACEN BRUTS Q118 ATL J45 BNA J73 PXV BDF QUOTE B738 2h 20m

Route Details

Aircraft Information
Primary: Boeing 767-300BDSF
Backup: Boeing 757-200SF
Route Data
Distance: 913nm
Duration: 2h 39m
Recm'd Route: ENDED8 LACEN BRUTS Q118 ATL BWG TTH JOT QUOTE
Origin Wx: KTPA 141853Z 24008KT 10SM FEW050 29/16 A3007 RMK AO2 SLP180 T02940156 $
Dest. Wx: KRFD 141854Z 29011G19KT 10SM BKN038 09/M02 A3010 RMK AO2 SLP199 T00891022
Notes: